Time;durP1;ratioP1;P1;durP2;ratioP2;P2;SDS_P1;SDS_P2;PMS_P1;PMS_P2;Temp;Humidity;BMP_temperature;BMP_pressure;BME280_temperature;BME280_humidity;BME280_pressure;Samples;Min_cycle;Max_cycle;Signal;HPM_P1;HPM_P2
2023/05/24 00:00:11;;;;;;;15.10;3.90;;;;;;;10.84;100.00;99574.28;5101905;28;20206;-77
2023/05/24 00:02:41;;;;;;;13.83;4.27;;;;;;;10.87;100.00;99579.41;5112720;28;20237;-77
2023/05/24 00:05:11;;;;;;;14.10;4.27;;;;;;;10.83;100.00;99578.75;5104880;28;20299;-77
2023/05/24 00:07:39;;;;;;;10.13;3.73;;;;;;;10.61;100.00;99575.59;5116489;27;20236;-76
2023/05/24 00:10:10;;;;;;;15.57;4.10;;;;;;;10.71;100.00;99570.63;5115207;27;20673;-78
2023/05/24 00:12:38;;;;;;;12.57;3.83;;;;;;;10.55;100.00;99570.69;5109054;28;20201;-77
2023/05/24 00:15:09;;;;;;;12.40;3.53;;;;;;;10.53;100.00;99580.50;5114307;28;20199;-77
2023/05/24 00:17:39;;;;;;;12.57;3.67;;;;;;;10.49;100.00;99571.88;5112470;28;20199;-77
2023/05/24 00:20:12;;;;;;;11.73;3.63;;;;;;;10.49;100.00;99576.31;5110105;28;20187;-77
2023/05/24 00:22:42;;;;;;;14.13;3.50;;;;;;;10.48;100.00;99580.75;5117706;27;20218;-77
2023/05/24 00:25:10;;;;;;;11.03;3.53;;;;;;;10.52;100.00;99590.25;5110246;28;20190;-77
2023/05/24 00:27:39;;;;;;;11.80;3.67;;;;;;;10.51;100.00;99590.31;5113275;28;20191;-78
2023/05/24 00:30:10;;;;;;;17.60;3.90;;;;;;;10.57;100.00;99593.47;5110185;28;20218;-78
2023/05/24 00:32:39;;;;;;;9.40;3.50;;;;;;;10.41;100.00;99584.69;5111539;28;20198;-77
2023/05/24 00:35:08;;;;;;;14.07;3.97;;;;;;;10.39;100.00;99597.16;5108412;28;20199;-77
2023/05/24 00:37:40;;;;;;;11.43;4.33;;;;;;;10.39;100.00;99597.16;5113403;28;20244;-77
2023/05/24 00:40:10;;;;;;;11.33;3.70;;;;;;;10.44;100.00;99596.91;5105889;28;20199;-78
2023/05/24 00:42:38;;;;;;;11.00;3.53;;;;;;;10.36;100.00;99597.34;5107720;28;20223;-76
2023/05/24 00:45:10;;;;;;;11.10;3.80;;;;;;;10.13;100.00;99589.78;5113631;28;20199;-75
2023/05/24 00:47:39;;;;;;;12.47;3.50;;;;;;;10.08;100.00;99594.47;5111529;28;20206;-76
2023/05/24 00:50:10;;;;;;;13.57;3.90;;;;;;;10.13;100.00;99595.91;5111599;28;20244;-75
2023/05/24 00:52:39;;;;;;;13.17;3.43;;;;;;;9.91;100.00;99604.19;5116622;28;20191;-75
2023/05/24 00:55:09;;;;;;;16.10;3.30;;;;;;;9.98;100.00;99596.78;5108855;28;20227;-75
2023/05/24 00:57:39;;;;;;;10.47;3.60;;;;;;;10.03;100.00;99589.44;5116153;28;20653;-78
2023/05/24 01:00:11;;;;;;;17.33;3.70;;;;;;;9.80;100.00;99595.97;5121246;27;20206;-75
2023/05/24 01:02:39;;;;;;;9.20;3.00;;;;;;;9.74;100.00;99591.84;5120302;27;20237;-74
2023/05/24 01:05:12;;;;;;;13.57;3.70;;;;;;;9.81;100.00;99596.84;5114572;28;20252;-74
2023/05/24 01:07:51;;;;;;;11.00;3.40;;;;;;;9.81;100.00;99589.75;5112990;28;20639;-75
2023/05/24 01:10:32;;;;;;;14.47;3.37;;;;;;;9.56;100.00;99605.25;5110715;28;20186;-75
2023/05/24 01:13:07;;;;;;;11.23;3.00;;;;;;;9.39;100.00;99596.38;5105116;28;20273;-75
2023/05/24 01:15:47;;;;;;;10.03;3.43;;;;;;;9.37;100.00;99587.69;5117518;27;20202;-75
2023/05/24 01:18:20;;;;;;;10.97;3.93;;;;;;;9.33;100.00;99596.69;5111770;28;20262;-77
2023/05/24 01:20:58;;;;;;;13.27;3.67;;;;;;;9.40;100.00;99587.53;5111044;28;20191;-78
2023/05/24 01:23:41;;;;;;;10.10;3.57;;;;;;;9.51;100.00;99589.59;5109777;28;20210;-76
2023/05/24 01:26:27;;;;;;;15.53;3.63;;;;;;;9.29;100.00;99589.88;5115110;27;20195;-75
2023/05/24 01:29:00;;;;;;;12.40;3.47;;;;;;;9.45;100.00;99587.25;5105836;28;20688;-75
2023/05/24 01:31:29;;;;;;;13.93;3.77;;;;;;;9.35;100.00;99583.38;5109735;28;20668;-76
2023/05/24 01:33:58;;;;;;;10.40;3.80;;;;;;;9.38;100.00;99584.09;5111513;28;20226;-76
2023/05/24 01:36:28;;;;;;;12.93;3.90;;;;;;;9.40;100.00;99587.53;5106413;28;20198;-75
2023/05/24 01:38:56;;;;;;;13.93;2.83;;;;;;;9.54;100.00;99586.78;5114010;27;20191;-75
2023/05/24 01:41:36;;;;;;;13.13;3.70;;;;;;;9.42;100.00;99590.06;5109887;28;20198;-75
2023/05/24 01:44:15;;;;;;;9.40;3.30;;;;;;;9.48;100.00;99584.47;5112468;28;20210;-76
2023/05/24 01:46:50;;;;;;;11.60;3.90;;;;;;;9.21;100.00;99585.91;5108434;28;20209;-77
2023/05/24 01:49:23;;;;;;;10.83;3.73;;;;;;;9.09;100.00;99593.53;5112173;28;20290;-76
2023/05/24 01:51:57;;;;;;;11.03;3.63;;;;;;;8.94;100.00;99585.53;5107642;28;20187;-75
2023/05/24 01:54:28;;;;;;;12.90;3.60;;;;;;;8.69;100.00;99581.47;5107543;28;20230;-76
2023/05/24 01:56:59;;;;;;;12.03;3.37;;;;;;;8.55;100.00;99578.66;5107658;28;20210;-76
2023/05/24 01:59:30;;;;;;;12.83;2.93;;;;;;;8.53;100.00;99578.72;5106404;28;20194;-76
2023/05/24 02:01:58;;;;;;;14.47;3.27;;;;;;;8.41;100.00;99583.75;5114208;27;20215;-76
2023/05/24 02:04:27;;;;;;;9.40;3.50;;;;;;;8.38;100.00;99579.47;5113898;28;20191;-75
2023/05/24 02:06:55;;;;;;;7.50;2.70;;;;;;;8.38;100.00;99589.16;5109435;28;20195;-75
2023/05/24 02:09:23;;;;;;;11.43;3.53;;;;;;;8.36;100.00;99576.03;5110811;28;20209;-76
2023/05/24 02:11:51;;;;;;;12.77;3.33;;;;;;;8.24;100.00;99574.81;5108749;28;20198;-75
2023/05/24 02:14:20;;;;;;;13.53;3.37;;;;;;;8.22;100.00;99581.09;5113942;27;20688;-75
2023/05/24 02:16:50;;;;;;;13.90;3.27;;;;;;;8.27;100.00;99579.09;5106680;28;20195;-76
2023/05/24 02:19:18;;;;;;;9.50;2.97;;;;;;;8.19;100.00;99583.88;5113498;28;20202;-77
2023/05/24 02:21:46;;;;;;;12.80;3.03;;;;;;;8.27;100.00;99579.94;5104346;28;20202;-76
2023/05/24 02:24:15;;;;;;;13.53;3.17;;;;;;;8.26;100.00;99577.38;5112862;28;20290;-76
2023/05/24 02:26:43;;;;;;;12.97;3.53;;;;;;;8.04;100.00;99572.28;5107898;28;20201;-76
2023/05/24 02:29:11;;;;;;;16.07;3.23;;;;;;;8.16;100.00;99576.09;5113810;27;20191;-76
2023/05/24 02:31:40;;;;;;;11.47;3.40;;;;;;;8.17;100.00;99573.41;5110298;28;20246;-76
2023/05/24 02:34:09;;;;;;;12.33;3.60;;;;;;;8.18;100.00;99579.53;5109340;28;20698;-76
2023/05/24 02:36:38;;;;;;;18.63;3.70;;;;;;;7.93;100.00;99572.78;5113162;28;20312;-76
2023/05/24 02:39:06;;;;;;;14.17;3.10;;;;;;;7.79;100.00;99583.09;5109066;28;20191;-76
2023/05/24 02:41:35;;;;;;;16.47;3.23;;;;;;;7.97;100.00;99569.06;5106261;28;20206;-76
2023/05/24 02:44:05;;;;;;;11.10;3.53;;;;;;;8.01;100.00;99564.50;5108198;28;20214;-76
2023/05/24 02:46:34;;;;;;;9.30;2.67;;;;;;;8.08;100.00;99570.34;5105472;28;20198;-75
2023/05/24 02:49:04;;;;;;;14.80;3.30;;;;;;;8.15;100.00;99569.13;5112542;28;20191;-77
2023/05/24 02:51:33;;;;;;;14.63;3.53;;;;;;;8.23;100.00;99565.19;5105476;28;20206;-76
2023/05/24 02:54:01;;;;;;;15.50;3.13;;;;;;;8.24;100.00;99563.41;5109263;28;20250;-76
2023/05/24 02:56:30;;;;;;;11.30;3.30;;;;;;;8.36;100.00;99562.00;5109382;28;20195;-76
2023/05/24 02:58:58;;;;;;;13.00;3.53;;;;;;;8.36;100.00;99560.22;5106049;28;20198;-76
2023/05/24 03:01:27;;;;;;;12.20;3.30;;;;;;;8.38;100.00;99553.06;5115241;28;20248;-76
2023/05/24 03:03:55;;;;;;;13.30;3.20;;;;;;;8.34;100.00;99548.84;5106642;28;20295;-76
2023/05/24 03:06:24;;;;;;;13.20;3.50;;;;;;;8.39;100.00;99549.50;5114358;28;20195;-77
2023/05/24 03:08:53;;;;;;;11.03;3.03;;;;;;;8.31;100.00;99546.38;5110844;28;20213;-76
2023/05/24 03:11:22;;;;;;;13.77;2.70;;;;;;;8.35;100.00;99555.88;5108493;28;20273;-76
2023/05/24 03:13:51;;;;;;;14.43;2.83;;;;;;;8.27;100.00;99547.41;5104552;28;20190;-75
2023/05/24 03:16:19;;;;;;;10.83;2.60;;;;;;;8.33;100.00;99555.91;5110425;28;20187;-76
2023/05/24 03:18:49;;;;;;;13.30;3.63;;;;;;;8.36;100.00;99552.28;5114328;28;20223;-76
2023/05/24 03:21:19;;;;;;;8.70;2.97;;;;;;;8.25;100.00;99550.13;5115704;27;20191;-76
2023/05/24 03:23:47;;;;;;;11.43;3.10;;;;;;;8.15;100.00;99566.50;5110699;28;20223;-76
2023/05/24 03:26:19;;;;;;;14.37;3.43;;;;;;;8.24;100.00;99553.72;5109569;28;20282;-76
2023/05/24 03:28:49;;;;;;;7.40;3.17;;;;;;;8.28;100.00;99559.69;5106887;28;20219;-76
2023/05/24 03:31:19;;;;;;;13.63;3.60;;;;;;;8.11;100.00;99563.16;5112915;28;20200;-76
2023/05/24 03:33:47;;;;;;;13.10;3.10;;;;;;;8.20;100.00;99570.63;5106954;28;20205;-77
2023/05/24 03:36:16;;;;;;;9.13;2.90;;;;;;;8.08;100.00;99567.69;5108177;28;20625;-76
2023/05/24 03:38:44;;;;;;;12.97;3.27;;;;;;;7.79;100.00;99576.97;5107538;28;20199;-76
2023/05/24 03:41:13;;;;;;;10.73;2.80;;;;;;;7.88;100.00;99572.13;5115278;28;20191;-76
2023/05/24 03:43:42;;;;;;;11.87;2.80;;;;;;;7.81;100.00;99564.56;5116145;28;20221;-77
2023/05/24 03:46:11;;;;;;;10.80;3.23;;;;;;;7.84;100.00;99575.84;5115414;28;20195;-77
2023/05/24 03:48:39;;;;;;;11.13;2.93;;;;;;;7.88;100.00;99569.47;5109567;28;20252;-77
2023/05/24 03:51:09;;;;;;;9.73;3.17;;;;;;;7.88;100.00;99561.56;5112546;28;20225;-77
2023/05/24 03:53:37;;;;;;;14.13;3.40;;;;;;;7.96;100.00;99575.25;5116264;28;20223;-77
2023/05/24 03:56:06;;;;;;;10.57;3.00;;;;;;;7.87;100.00;99578.31;5110511;28;20203;-77
2023/05/24 03:58:34;;;;;;;12.57;2.93;;;;;;;7.82;100.00;99577.69;5110703;28;20206;-77
2023/05/24 04:01:04;;;;;;;12.23;3.03;;;;;;;7.82;100.00;99572.44;5109772;28;20219;-76
2023/05/24 04:03:33;;;;;;;13.23;2.87;;;;;;;7.55;100.00;99579.81;5111636;28;20580;-77
2023/05/24 04:06:01;;;;;;;16.00;3.33;;;;;;;7.52;100.00;99576.44;5116396;28;20225;-76
2023/05/24 04:08:30;;;;;;;9.60;3.90;;;;;;;7.67;100.00;99584.50;5116027;28;20187;-77
2023/05/24 04:10:58;;;;;;;14.97;3.13;;;;;;;7.59;100.00;99591.06;5073264;28;20215;-76
2023/05/24 04:13:27;;;;;;;11.83;3.10;;;;;;;7.63;100.00;99592.66;5066534;28;20196;-77
2023/05/24 04:15:55;;;;;;;11.37;3.27;;;;;;;7.74;100.00;99593.88;5066523;28;20271;-77
2023/05/24 04:18:26;;;;;;;14.07;4.23;;;;;;;7.78;100.00;99596.34;5067173;28;20270;-76
2023/05/24 04:20:54;;;;;;;17.27;3.63;;;;;;;7.91;100.00;99600.13;5036795;28;20275;-76
2023/05/24 04:23:22;;;;;;;12.17;3.30;;;;;;;7.96;100.00;99604.28;5072881;28;20295;-76
2023/05/24 04:25:51;;;;;;;9.93;3.70;;;;;;;7.77;100.00;99597.28;5067608;28;20204;-77
2023/05/24 04:28:21;;;;;;;17.50;3.83;;;;;;;7.88;100.00;99595.84;5079840;28;20227;-76
2023/05/24 04:30:49;;;;;;;13.00;3.43;;;;;;;7.74;100.00;99600.91;5114754;28;20207;-76
2023/05/24 04:33:17;;;;;;;16.63;3.47;;;;;;;7.97;100.00;99602.50;5112663;28;20195;-77
2023/05/24 04:35:47;;;;;;;15.43;4.00;;;;;;;8.03;100.00;99603.06;5115511;28;20199;-76
2023/05/24 04:38:16;;;;;;;16.93;4.60;;;;;;;8.04;100.00;99598.66;5109987;28;20199;-76
2023/05/24 04:40:47;;;;;;;20.57;4.60;;;;;;;7.64;100.00;99612.81;5111281;28;20268;-77
2023/05/24 04:43:15;;;;;;;21.57;4.07;;;;;;;7.95;100.00;99609.63;5109899;28;20199;-76
2023/05/24 04:45:44;;;;;;;17.90;4.20;;;;;;;8.09;100.00;99616.88;5116132;27;20195;-76
2023/05/24 04:48:12;;;;;;;18.03;3.87;;;;;;;8.19;100.00;99608.47;5109793;28;20213;-76
2023/05/24 04:50:40;;;;;;;13.93;3.40;;;;;;;7.89;100.00;99617.81;5111222;28;20198;-76
2023/05/24 04:53:12;;;;;;;13.57;3.73;;;;;;;7.90;100.00;99609.81;5117517;27;20205;-76
2023/05/24 04:55:42;;;;;;;17.23;3.90;;;;;;;8.03;100.00;99618.06;5111761;28;20238;-76
2023/05/24 04:58:10;;;;;;;14.23;4.27;;;;;;;8.08;100.00;99607.28;5110403;28;20633;-76
2023/05/24 05:00:38;;;;;;;18.40;4.30;;;;;;;8.19;100.00;99618.19;5111868;28;20194;-76
2023/05/24 05:03:07;;;;;;;15.57;4.03;;;;;;;8.18;100.00;99616.47;5112179;28;20197;-76
2023/05/24 05:05:36;;;;;;;14.67;3.97;;;;;;;8.40;100.00;99604.03;5113379;28;20219;-77
2023/05/24 05:08:05;;;;;;;13.17;3.93;;;;;;;8.67;100.00;99609.72;5115097;28;20195;-77
2023/05/24 05:10:35;;;;;;;17.83;4.03;;;;;;;8.73;100.00;99613.84;5109641;28;20285;-77
2023/05/24 05:13:04;;;;;;;14.93;4.53;;;;;;;8.81;100.00;99623.13;5111781;28;20589;-77
2023/05/24 05:15:33;;;;;;;16.77;3.70;;;;;;;8.69;100.00;99626.38;5111865;28;20228;-77
2023/05/24 05:18:02;;;;;;;17.80;4.17;;;;;;;8.70;100.00;99629.88;5114991;28;20190;-77
2023/05/24 05:20:30;;;;;;;16.70;4.10;;;;;;;8.80;100.00;99625.84;5114937;28;20191;-77
2023/05/24 05:22:59;;;;;;;9.17;3.53;;;;;;;8.99;100.00;99626.66;5115019;27;20626;-77
2023/05/24 05:25:27;;;;;;;13.50;3.73;;;;;;;9.28;100.00;99624.31;5113244;28;20746;-77
2023/05/24 05:27:57;;;;;;;14.23;3.30;;;;;;;9.41;100.00;99628.88;5116862;27;20187;-77
2023/05/24 05:30:27;;;;;;;17.07;3.67;;;;;;;9.41;100.00;99630.66;5108897;28;20223;-77
2023/05/24 05:32:55;;;;;;;19.43;4.30;;;;;;;9.46;100.00;99637.44;5116884;27;20205;-76
2023/05/24 05:35:24;;;;;;;17.70;4.27;;;;;;;9.28;100.00;99634.88;5113175;28;20205;-76
2023/05/24 05:37:52;;;;;;;14.13;4.33;;;;;;;9.52;100.00;99630.97;5112242;28;20199;-77
2023/05/24 05:40:21;;;;;;;13.93;4.00;;;;;;;9.65;100.00;99632.06;5107450;28;20210;-77
2023/05/24 05:42:50;;;;;;;23.07;4.00;;;;;;;9.93;100.00;99634.06;5103760;28;20223;-76
2023/05/24 05:45:20;;;;;;;19.20;3.27;;;;;;;9.62;100.00;99632.19;5112333;28;20207;-77
2023/05/24 05:47:48;;;;;;;15.63;3.93;;;;;;;9.67;100.00;99624.03;5111128;28;20404;-77
2023/05/24 05:50:17;;;;;;;16.10;4.27;;;;;;;9.83;100.00;99626.69;5107758;28;20274;-76
2023/05/24 05:52:45;;;;;;;10.57;3.83;;;;;;;9.69;100.00;99625.66;5114415;27;20699;-77
2023/05/24 05:55:14;;;;;;;13.13;3.73;;;;;;;9.56;100.00;99621.09;5107692;28;20223;-77
2023/05/24 05:57:43;;;;;;;12.67;3.37;;;;;;;9.60;100.00;99623.50;5105794;28;20195;-77
2023/05/24 06:00:12;;;;;;;14.47;3.67;;;;;;;9.74;100.00;99622.75;5107116;28;20245;-78
2023/05/24 06:02:42;;;;;;;15.80;4.17;;;;;;;9.85;100.00;99630.16;5114020;28;20202;-77
2023/05/24 06:05:11;;;;;;;22.33;4.40;;;;;;;9.67;100.00;99616.09;5109186;28;20313;-77
2023/05/24 06:07:42;;;;;;;14.97;4.00;;;;;;;9.83;100.00;99626.69;5112121;28;20203;-76
2023/05/24 06:10:11;;;;;;;18.60;4.17;;;;;;;9.78;100.00;99626.09;5106731;28;20251;-77
2023/05/24 06:12:40;;;;;;;12.47;4.03;;;;;;;9.76;100.00;99628.84;5108834;28;20278;-76
2023/05/24 06:15:09;;;;;;;12.07;3.50;;;;;;;9.83;100.00;99626.69;5110746;28;20237;-77
2023/05/24 06:17:37;;;;;;;12.63;4.20;;;;;;;9.85;100.00;99631.00;5104889;28;20400;-77
2023/05/24 06:20:10;;;;;;;12.77;3.70;;;;;;;9.71;100.00;99628.22;5108909;28;20198;-77
2023/05/24 06:22:38;;;;;;;12.70;3.40;;;;;;;9.75;100.00;99627.97;5111646;28;20209;-81
2023/05/24 06:25:07;;;;;;;13.83;3.40;;;;;;;9.91;100.00;99627.16;5112296;28;20222;-77
2023/05/24 06:27:35;;;;;;;15.13;4.20;;;;;;;9.88;100.00;99622.88;5045540;28;20201;-77
2023/05/24 06:30:05;;;;;;;15.07;3.43;;;;;;;9.98;100.00;99618.81;5045271;28;20203;-77
2023/05/24 06:32:34;;;;;;;12.47;3.77;;;;;;;9.88;100.00;99630.81;5039638;28;20255;-77
2023/05/24 06:35:05;;;;;;;19.30;3.70;;;;;;;9.53;100.00;99632.66;5042981;28;20201;-77
2023/05/24 06:37:35;;;;;;;16.53;4.30;;;;;;;9.87;100.00;99636.19;5047825;28;20204;-78
2023/05/24 06:40:05;;;;;;;12.63;2.90;;;;;;;9.93;100.00;99639.34;5049135;28;20284;-77
2023/05/24 06:42:33;;;;;;;17.17;3.73;;;;;;;10.00;100.00;99648.69;5047735;28;20192;-77
2023/05/24 06:45:01;;;;;;;15.63;4.23;;;;;;;9.92;100.00;99650.88;5046692;28;20216;-77
2023/05/24 06:47:30;;;;;;;11.00;3.27;;;;;;;10.08;100.00;99655.34;5050451;28;20260;-77
2023/05/24 06:50:00;;;;;;;14.13;3.73;;;;;;;10.13;100.00;99651.50;5014472;28;20368;-77
2023/05/24 06:52:29;;;;;;;14.40;3.40;;;;;;;10.27;100.00;99651.66;5045315;28;20242;-77
2023/05/24 06:54:58;;;;;;;13.23;3.40;;;;;;;10.28;100.00;99656.00;5045434;28;20731;-77
2023/05/24 06:57:26;;;;;;;20.00;3.90;;;;;;;10.22;100.00;99653.69;5050095;28;20288;-77
2023/05/24 06:59:55;;;;;;;11.67;3.50;;;;;;;10.31;100.00;99668.22;5111561;28;20182;-77
2023/05/24 07:02:27;;;;;;;13.47;3.20;;;;;;;10.24;100.00;99674.81;5109592;28;20183;-77
2023/05/24 07:04:55;;;;;;;15.23;3.60;;;;;;;10.14;100.00;99673.56;5114298;28;20225;-78
2023/05/24 07:07:24;;;;;;;14.93;3.60;;;;;;;10.15;100.00;99675.28;5102634;28;20198;-77
2023/05/24 07:09:52;;;;;;;13.07;3.90;;;;;;;10.18;100.00;99675.94;5109464;28;20207;-77
2023/05/24 07:12:22;;;;;;;17.10;3.87;;;;;;;10.26;100.00;99675.56;5109390;28;20283;-77
2023/05/24 07:14:50;;;;;;;14.40;3.90;;;;;;;10.32;100.00;99685.81;5112504;28;20195;-76
2023/05/24 07:17:19;;;;;;;13.80;3.30;;;;;;;10.41;100.00;99689.75;5108944;28;20195;-77
2023/05/24 07:19:47;;;;;;;14.30;3.70;;;;;;;10.19;100.00;99690.03;5115864;28;20202;-77
2023/05/24 07:24:57;;;;;;;20.00;4.47;;;;;;;10.52;100.00;99690.91;5192301;22;20727;-76
2023/05/24 07:27:28;;;;;;;13.60;3.60;;;;;;;10.67;100.00;99691.81;4990074;28;20233;-76
2023/05/24 07:29:57;;;;;;;15.87;3.47;;;;;;;10.37;100.00;99690.88;4992142;28;20202;-76
2023/05/24 07:32:31;;;;;;;15.53;3.47;;;;;;;10.80;100.00;99684.03;4992894;28;20215;-77
2023/05/24 07:35:00;;;;;;;16.67;4.37;;;;;;;10.69;100.00;99695.22;4997056;28;20230;-76
2023/05/24 07:37:29;;;;;;;15.00;4.13;;;;;;;11.06;100.00;99678.09;4987997;28;20207;-76
2023/05/24 07:39:58;;;;;;;13.10;4.10;;;;;;;10.94;100.00;99685.91;4996755;28;20205;-77
2023/05/24 07:42:28;;;;;;;19.93;4.50;;;;;;;10.97;100.00;99686.59;4953734;28;20229;-76
2023/05/24 07:44:58;;;;;;;12.97;4.23;;;;;;;11.13;100.00;99689.22;4987847;28;20195;-76
2023/05/24 07:47:26;;;;;;;17.30;4.93;;;;;;;10.84;100.00;99688.25;4996540;28;20222;-77
2023/05/24 07:49:55;;;;;;;12.20;3.77;;;;;;;10.89;100.00;99680.88;4992319;28;20191;-76
2023/05/24 07:52:25;;;;;;;17.50;4.97;;;;;;;10.84;100.00;99693.53;4993021;28;20207;-77
2023/05/24 07:54:55;;;;;;;17.10;4.33;;;;;;;10.68;100.00;99682.94;4989904;28;20210;-77
2023/05/24 07:57:24;;;;;;;18.53;4.83;;;;;;;10.76;100.00;99688.66;4958461;28;20195;-77
2023/05/24 07:59:55;;;;;;;16.07;4.87;;;;;;;10.77;100.00;99692.16;4992142;28;20203;-76
2023/05/24 08:02:24;;;;;;;17.47;5.13;;;;;;;10.87;100.00;99682.75;4989148;28;20207;-77
2023/05/24 08:04:52;;;;;;;21.33;5.77;;;;;;;11.13;100.00;99686.56;4993391;28;20191;-77
2023/05/24 08:07:21;;;;;;;18.43;4.33;;;;;;;11.36;100.00;99679.91;4988752;28;20230;-77
2023/05/24 08:09:49;;;;;;;14.33;4.20;;;;;;;11.74;100.00;99678.47;4946310;28;20209;-76
2023/05/24 08:12:17;;;;;;;19.97;4.80;;;;;;;12.04;100.00;99669.63;4989202;28;20199;-77
2023/05/24 08:14:46;;;;;;;16.97;4.30;;;;;;;12.27;100.00;99673.53;4996342;28;20210;-77
2023/05/24 08:17:15;;;;;;;15.70;4.10;;;;;;;12.20;100.00;99669.53;4989515;28;20203;-77
2023/05/24 08:19:43;;;;;;;10.87;3.93;;;;;;;12.16;100.00;99671.53;4992275;28;20232;-77
2023/05/24 08:22:13;;;;;;;15.10;3.80;;;;;;;11.90;100.00;99677.59;4987535;28;20203;-77
2023/05/24 08:24:41;;;;;;;13.57;4.30;;;;;;;12.24;100.00;99677.19;4988050;28;20327;-77
2023/05/24 08:27:09;;;;;;;15.97;4.10;;;;;;;11.88;100.00;99675.03;4992889;28;20225;-77
2023/05/24 08:29:39;;;;;;;16.83;4.53;;;;;;;11.56;100.00;99674.28;4994179;28;20203;-77
2023/05/24 08:32:09;;;;;;;13.23;3.87;;;;;;;11.97;100.00;99663.00;4993192;28;20245;-76
2023/05/24 08:34:39;;;;;;;13.80;4.17;;;;;;;12.04;100.00;99662.50;4988437;28;20199;-77
2023/05/24 08:37:08;;;;;;;16.63;4.53;;;;;;;12.13;100.00;99665.56;4992595;28;20315;-77
2023/05/24 08:39:36;;;;;;;21.33;4.10;;;;;;;11.86;100.00;99666.28;4988880;28;20203;-77
2023/05/24 08:42:07;;;;;;;17.47;4.67;;;;;;;12.47;100.00;99664.28;4985071;28;20215;-76
2023/05/24 08:44:43;;;;;;;12.20;3.93;;;;;;;12.72;100.00;99661.75;4991645;28;20242;-77
2023/05/24 08:47:13;;;;;;;13.03;3.50;;;;;;;12.95;100.00;99664.75;4987065;28;20222;-77
2023/05/24 08:49:43;;;;;;;14.93;3.93;;;;;;;13.08;100.00;99668.28;4988995;28;20214;-77
2023/05/24 08:52:12;;;;;;;16.13;4.50;;;;;;;13.20;100.00;99663.97;4995549;28;20658;-77
2023/05/24 08:54:41;;;;;;;11.90;4.07;;;;;;;12.94;100.00;99663.88;4988801;28;20234;-77
2023/05/24 08:57:10;;;;;;;12.33;4.67;;;;;;;12.88;100.00;99666.94;4992426;28;20468;-77
2023/05/24 08:59:40;;;;;;;12.80;3.67;;;;;;;12.92;100.00;99664.91;4992543;28;20207;-77
2023/05/24 09:02:11;;;;;;;15.47;4.30;;;;;;;12.76;100.00;99670.41;4988609;28;20246;-77
2023/05/24 09:04:40;;;;;;;14.23;4.07;;;;;;;12.77;100.00;99667.63;4991307;28;20203;-77
2023/05/24 09:07:13;;;;;;;12.77;3.87;;;;;;;12.96;100.00;99672.59;4990446;28;20219;-77
2023/05/24 09:09:44;;;;;;;11.70;4.07;;;;;;;12.84;100.00;99665.44;4990928;28;20205;-77
2023/05/24 09:12:15;;;;;;;14.13;3.80;;;;;;;12.99;100.00;99669.75;4988656;28;20278;-77
2023/05/24 09:14:56;;;;;;;13.77;4.03;;;;;;;13.03;99.07;99665.94;4993879;28;20263;-76
2023/05/24 09:17:25;;;;;;;15.97;4.47;;;;;;;13.38;95.30;99660.94;4995374;28;20201;-77
2023/05/24 09:19:53;;;;;;;14.40;3.97;;;;;;;13.79;91.20;99664.38;4992598;28;20199;-76
2023/05/24 09:22:26;;;;;;;16.53;3.67;;;;;;;13.39;93.93;99664.47;4896287;29;20202;-77
2023/05/24 09:24:58;;;;;;;15.27;4.07;;;;;;;13.25;95.64;99659.22;4897496;29;20764;-77
2023/05/24 09:27:27;;;;;;;15.40;4.83;;;;;;;13.09;98.69;99662.84;4893180;29;20218;-77
2023/05/24 09:29:56;;;;;;;15.73;4.20;;;;;;;12.80;97.84;99662.13;4894510;29;20230;-77
2023/05/24 09:32:24;;;;;;;12.87;4.53;;;;;;;12.92;96.44;99655.13;4897145;29;20205;-77
2023/05/24 09:34:54;;;;;;;12.07;4.43;;;;;;;13.12;94.74;99660.00;4893942;29;20211;-77
2023/05/24 09:37:26;;;;;;;18.03;4.23;;;;;;;13.00;92.31;99654.63;4896360;29;20214;-77
2023/05/24 09:40:00;;;;;;;12.60;3.93;;;;;;;13.21;98.29;99666.53;4917801;28;20219;-77
2023/05/24 09:42:29;;;;;;;20.27;3.93;;;;;;;13.64;91.52;99661.84;4991153;28;20187;-77
2023/05/24 09:45:05;;;;;;;17.13;4.03;;;;;;;13.70;90.26;99663.22;4986167;28;20286;-77
2023/05/24 09:47:34;;;;;;;9.53;3.90;;;;;;;13.46;83.72;99661.28;4994206;28;20249;-77
2023/05/24 09:50:05;;;;;;;13.03;3.97;;;;;;;13.55;90.64;99653.63;4989358;28;20193;-77
2023/05/24 09:52:36;;;;;;;12.40;3.63;;;;;;;13.72;85.90;99658.66;4990542;28;20209;-78
2023/05/24 09:55:12;;;;;;;10.87;3.83;;;;;;;14.27;87.53;99652.09;4989950;28;20237;-77
2023/05/24 09:57:40;;;;;;;12.93;3.97;;;;;;;14.31;85.46;99650.94;4987021;28;20199;-78
2023/05/24 10:00:16;;;;;;;13.93;3.77;;;;;;;14.44;86.15;99657.09;4994125;28;20211;-77
2023/05/24 10:02:45;;;;;;;12.63;4.40;;;;;;;14.41;85.65;99641.31;4988832;28;20205;-78
2023/05/24 10:05:21;;;;;;;12.03;3.77;;;;;;;14.23;82.72;99639.97;4988185;28;20198;-77
2023/05/24 10:07:52;;;;;;;13.83;4.17;;;;;;;14.11;84.37;99652.38;4986464;28;20254;-77
2023/05/24 10:10:20;;;;;;;13.47;4.00;;;;;;;14.31;85.19;99650.94;4990960;28;20270;-77
2023/05/24 10:12:50;;;;;;;7.03;3.73;;;;;;;14.41;80.12;99649.31;4990949;28;20199;-77
2023/05/24 10:15:19;;;;;;;11.30;4.03;;;;;;;14.52;80.45;99651.25;4988266;28;20191;-77
2023/05/24 10:17:47;;;;;;;15.03;4.33;;;;;;;15.03;75.86;99646.56;4994500;28;20681;-77
2023/05/24 10:20:17;;;;;;;12.80;3.70;;;;;;;15.46;70.51;99652.19;4989920;28;20195;-77
2023/05/24 10:22:47;;;;;;;13.93;4.07;;;;;;;15.50;72.92;99652.78;4988888;28;20195;-78
2023/05/24 10:25:24;;;;;;;11.33;3.87;;;;;;;15.73;70.89;99640.41;4941401;28;20301;-77
2023/05/24 10:27:59;;;;;;;10.83;3.90;;;;;;;16.05;67.58;99645.03;4991254;28;20225;-77
2023/05/24 10:30:34;;;;;;;12.27;6.50;;;;;;;15.85;66.51;99638.59;4991002;28;20193;-78
2023/05/24 10:33:05;;;;;;;10.13;3.83;;;;;;;15.62;67.82;99641.19;4985346;28;20202;-77
2023/05/24 10:35:36;;;;;;;11.50;4.83;;;;;;;15.37;66.83;99634.19;4986299;28;20206;-78
2023/05/24 10:38:07;;;;;;;14.30;4.20;;;;;;;15.77;71.85;99625.81;4987226;28;20194;-77
2023/05/24 10:40:42;;;;;;;12.13;4.10;;;;;;;15.47;74.84;99626.34;4989487;28;20309;-77
2023/05/24 10:43:10;;;;;;;12.00;4.23;;;;;;;14.89;74.08;99631.59;4984085;28;20203;-77
2023/05/24 10:45:39;;;;;;;12.17;3.90;;;;;;;14.69;73.46;99634.88;4982519;28;20201;-77
2023/05/24 10:48:34;;;;;;;12.17;3.77;;;;;;;15.13;71.40;99633.38;4986345;28;20226;-77
2023/05/24 10:51:31;;;;;;;13.60;4.03;;;;;;;15.34;69.42;99631.75;4981167;28;20262;-78
2023/05/24 10:54:16;;;;;;;12.60;3.97;;;;;;;15.24;66.92;99628.06;4928967;29;20284;-77
2023/05/24 10:56:49;;;;;;;10.33;3.40;;;;;;;15.29;63.65;99625.91;4926315;29;20228;-78
2023/05/24 10:59:28;;;;;;;12.23;4.17;;;;;;;15.42;64.33;99632.00;4930020;29;20193;-77
2023/05/24 11:01:59;;;;;;;10.53;3.73;;;;;;;15.29;68.03;99630.41;4928062;29;20284;-77
2023/05/24 11:04:32;;;;;;;13.47;3.80;;;;;;;15.24;68.73;99638.75;4933405;29;20197;-78
2023/05/24 11:07:03;;;;;;;13.80;3.67;;;;;;;15.32;68.13;99633.69;4930842;29;20686;-77
2023/05/24 11:09:32;;;;;;;12.90;3.63;;;;;;;15.18;70.48;99633.91;4929610;29;20288;-77
2023/05/24 11:12:08;;;;;;;11.77;4.03;;;;;;;15.09;74.39;99626.56;4951776;28;20203;-77
2023/05/24 11:14:41;;;;;;;9.10;3.67;;;;;;;14.71;77.74;99629.44;4987319;28;20214;-77
2023/05/24 11:17:09;;;;;;;11.40;4.00;;;;;;;15.06;73.52;99627.66;4941094;28;20195;-78
2023/05/24 11:19:39;;;;;;;11.80;3.97;;;;;;;15.85;69.78;99625.22;4987545;28;20209;-78
2023/05/24 11:22:09;;;;;;;11.17;3.60;;;;;;;16.41;62.39;99628.75;4985963;28;20207;-77
2023/05/24 11:24:37;;;;;;;13.80;3.87;;;;;;;17.11;59.23;99617.63;4988089;28;20237;-77
2023/05/24 11:27:11;;;;;;;12.23;3.90;;;;;;;17.89;52.59;99623.53;4986178;28;20223;-78
2023/05/24 11:29:44;;;;;;;10.33;3.53;;;;;;;18.03;51.01;99607.94;4990052;28;20285;-77
2023/05/24 11:32:16;;;;;;;10.37;3.40;;;;;;;17.48;51.44;99619.88;4990507;28;20203;-78
2023/05/24 11:34:46;;;;;;;12.60;4.00;;;;;;;17.05;54.39;99607.41;4988716;28;20330;-77
2023/05/24 11:37:15;;;;;;;10.10;3.50;;;;;;;16.84;56.59;99612.72;4982585;28;20191;-77
2023/05/24 11:39:51;;;;;;;10.53;3.53;;;;;;;17.02;54.06;99612.19;4987179;28;20238;-77